sensor_id;sensor_type;location;lat;lon;timestamp;pressure;altitude;pressure_sealevel;temperature;humidity
57799;BME280;43626;53.866;30.298;2022-07-29T00:00:08;1026.3;;;17.4;57.3
57799;BME280;43626;53.866;30.298;2022-07-29T00:05:07;1026.3;;;17.4;57.3
57799;BME280;43626;53.866;30.298;2022-07-29T00:10:07;1026.3;;;17.4;57.5
57799;BME280;43626;53.866;30.298;2022-07-29T00:15:07;1026.3;;;17.4;57.7
57799;BME280;43626;53.866;30.298;2022-07-29T00:20:07;1026.3;;;17.4;57.8
57799;BME280;43626;53.866;30.298;2022-07-29T00:25:07;1026.3;;;17.3;57.8
57799;BME280;43626;53.866;30.298;2022-07-29T00:30:07;1026.3;;;17.2;57.8
57799;BME280;43626;53.866;30.298;2022-07-29T00:35:07;1026.3;;;17.2;57.7
57799;BME280;43626;53.866;30.298;2022-07-29T00:40:07;1026.3;;;17.2;57.5
57799;BME280;43626;53.866;30.298;2022-07-29T00:45:07;1026.3;;;17.2;57.5
57799;BME280;43626;53.866;30.298;2022-07-29T00:50:08;1026.3;;;17.2;57.4
57799;BME280;43626;53.866;30.298;2022-07-29T00:55:08;1026.3;;;17.2;57.3
57799;BME280;43626;53.866;30.298;2022-07-29T01:00:09;1026.4;;;17.2;57.4
57799;BME280;43626;53.866;30.298;2022-07-29T01:05:07;1026.3;;;17.1;57.2
57799;BME280;43626;53.866;30.298;2022-07-29T01:10:08;1026.3;;;17;57.4
57799;BME280;43626;53.866;30.298;2022-07-29T01:15:08;1026.3;;;16.9;57.5
57799;BME280;43626;53.866;30.298;2022-07-29T01:30:07;1026.3;;;16.8;57.5
57799;BME280;43626;53.866;30.298;2022-07-29T01:35:10;1026.3;;;16.8;57.4
57799;BME280;43626;53.866;30.298;2022-07-29T01:40:11;1026.3;;;16.8;57.2
57799;BME280;43626;53.866;30.298;2022-07-29T01:45:10;1026.3;;;16.7;57.1
57799;BME280;43626;53.866;30.298;2022-07-29T01:50:11;1026.3;;;16.7;57.1
57799;BME280;43626;53.866;30.298;2022-07-29T01:55:09;1026.3;;;16.6;57.1
57799;BME280;43626;53.866;30.298;2022-07-29T02:00:07;1026.3;;;16.6;57.2
57799;BME280;43626;53.866;30.298;2022-07-29T02:05:07;1026.3;;;16.5;57.4
57799;BME280;43626;53.866;30.298;2022-07-29T02:10:07;1026.3;;;16.4;57.2
57799;BME280;43626;53.866;30.298;2022-07-29T02:15:07;1026.4;;;16.3;57
57799;BME280;43626;53.866;30.298;2022-07-29T02:20:08;1026.4;;;16.3;57.5
57799;BME280;43626;53.866;30.298;2022-07-29T02:25:07;1026.4;;;16.3;57.8
57799;BME280;43626;53.866;30.298;2022-07-29T02:30:07;1026.4;;;16.2;57.8
57799;BME280;43626;53.866;30.298;2022-07-29T02:35:08;1026.5;;;16.2;57.7
57799;BME280;43626;53.866;30.298;2022-07-29T02:40:08;1026.5;;;16.2;57.5
57799;BME280;43626;53.866;30.298;2022-07-29T02:45:07;1026.5;;;16.2;57.6
57799;BME280;43626;53.866;30.298;2022-07-29T02:50:12;1026.6;;;16.2;57.6
57799;BME280;43626;53.866;30.298;2022-07-29T02:55:11;1026.6;;;16.2;57.6
57799;BME280;43626;53.866;30.298;2022-07-29T03:00:08;1026.6;;;16.3;57.7
57799;BME280;43626;53.866;30.298;2022-07-29T03:05:08;1026.6;;;16.3;57.6
57799;BME280;43626;53.866;30.298;2022-07-29T03:10:07;1026.7;;;16.4;57.4
57799;BME280;43626;53.866;30.298;2022-07-29T03:15:07;1026.7;;;16.4;57.3
57799;BME280;43626;53.866;30.298;2022-07-29T03:20:07;1026.6;;;16.5;57.3
57799;BME280;43626;53.866;30.298;2022-07-29T03:25:08;1026.7;;;16.6;57.4
57799;BME280;43626;53.866;30.298;2022-07-29T03:30:07;1026.7;;;16.7;57
57799;BME280;43626;53.866;30.298;2022-07-29T03:35:07;1026.8;;;16.8;56.7
57799;BME280;43626;53.866;30.298;2022-07-29T03:40:07;1026.8;;;16.9;56.6
57799;BME280;43626;53.866;30.298;2022-07-29T03:45:08;1026.8;;;17;56.4
57799;BME280;43626;53.866;30.298;2022-07-29T03:50:08;1026.8;;;17.1;56.2
57799;BME280;43626;53.866;30.298;2022-07-29T03:55:08;1026.8;;;17.2;56.2
57799;BME280;43626;53.866;30.298;2022-07-29T04:00:08;1026.8;;;17.1;56.4
57799;BME280;43626;53.866;30.298;2022-07-29T04:05:11;1026.9;;;17.1;56.7
57799;BME280;43626;53.866;30.298;2022-07-29T04:10:07;1026.9;;;17.2;56.4
57799;BME280;43626;53.866;30.298;2022-07-29T04:15:07;1026.9;;;17.3;56.5
57799;BME280;43626;53.866;30.298;2022-07-29T04:20:07;1026.9;;;17.3;56.9
57799;BME280;43626;53.866;30.298;2022-07-29T04:25:07;1027;;;17.4;56.9
57799;BME280;43626;53.866;30.298;2022-07-29T04:30:07;1027;;;17.4;57
57799;BME280;43626;53.866;30.298;2022-07-29T04:35:07;1027;;;17.5;57.1
57799;BME280;43626;53.866;30.298;2022-07-29T04:40:07;1027.1;;;17.6;57
57799;BME280;43626;53.866;30.298;2022-07-29T04:45:07;1027;;;17.6;57.2
57799;BME280;43626;53.866;30.298;2022-07-29T04:50:08;1027.1;;;17.7;57.3
57799;BME280;43626;53.866;30.298;2022-07-29T04:55:07;1027.1;;;17.8;57.8
57799;BME280;43626;53.866;30.298;2022-07-29T05:00:07;1027.1;;;17.9;57.3
57799;BME280;43626;53.866;30.298;2022-07-29T05:05:07;1027.1;;;17.9;57.6
57799;BME280;43626;53.866;30.298;2022-07-29T05:10:07;1027.1;;;18;58
57799;BME280;43626;53.866;30.298;2022-07-29T05:15:07;1027.1;;;18.1;58
57799;BME280;43626;53.866;30.298;2022-07-29T05:20:07;1027.1;;;18.3;57.9
57799;BME280;43626;53.866;30.298;2022-07-29T05:25:07;1027.1;;;18.5;57.8
57799;BME280;43626;53.866;30.298;2022-07-29T05:30:07;1027.1;;;18.6;57.5
57799;BME280;43626;53.866;30.298;2022-07-29T05:35:07;1027.2;;;18.7;57.1
57799;BME280;43626;53.866;30.298;2022-07-29T05:40:08;1027.2;;;18.7;57
57799;BME280;43626;53.866;30.298;2022-07-29T05:45:07;1027.2;;;18.8;57
57799;BME280;43626;53.866;30.298;2022-07-29T05:50:07;1027.3;;;18.8;56.9
57799;BME280;43626;53.866;30.298;2022-07-29T05:55:07;1027.3;;;18.9;56.7
57799;BME280;43626;53.866;30.298;2022-07-29T06:00:07;1027.3;;;18.9;56.8
57799;BME280;43626;53.866;30.298;2022-07-29T06:05:07;1027.3;;;18.9;56.9
57799;BME280;43626;53.866;30.298;2022-07-29T06:10:07;1027.4;;;19;56.9
57799;BME280;43626;53.866;30.298;2022-07-29T06:15:07;1027.3;;;19.1;56.7
57799;BME280;43626;53.866;30.298;2022-07-29T06:20:07;1027.3;;;19.2;56.6
57799;BME280;43626;53.866;30.298;2022-07-29T06:25:07;1027.3;;;19.3;56.4
57799;BME280;43626;53.866;30.298;2022-07-29T06:30:07;1027.2;;;19.4;56.3
57799;BME280;43626;53.866;30.298;2022-07-29T06:35:07;1027.2;;;19.6;55.9
57799;BME280;43626;53.866;30.298;2022-07-29T06:40:07;1027.2;;;19.7;55.3
57799;BME280;43626;53.866;30.298;2022-07-29T06:45:07;1027.2;;;19.8;54.7
57799;BME280;43626;53.866;30.298;2022-07-29T06:50:07;1027.2;;;19.7;53.7
57799;BME280;43626;53.866;30.298;2022-07-29T06:55:07;1027.2;;;19.8;53.3
57799;BME280;43626;53.866;30.298;2022-07-29T07:00:07;1027.2;;;19.9;53.3
57799;BME280;43626;53.866;30.298;2022-07-29T07:05:07;1027.2;;;20.1;52
57799;BME280;43626;53.866;30.298;2022-07-29T07:10:07;1027.2;;;20.2;51.1
57799;BME280;43626;53.866;30.298;2022-07-29T07:15:07;1027.2;;;20.4;50.4
57799;BME280;43626;53.866;30.298;2022-07-29T07:20:07;1027.2;;;20.4;51
57799;BME280;43626;53.866;30.298;2022-07-29T07:25:07;1027.3;;;20.5;50.5
57799;BME280;43626;53.866;30.298;2022-07-29T07:30:07;1027.3;;;20.6;50
57799;BME280;43626;53.866;30.298;2022-07-29T07:35:08;1027.3;;;20.8;49.7
57799;BME280;43626;53.866;30.298;2022-07-29T07:40:08;1027.3;;;20.9;49
57799;BME280;43626;53.866;30.298;2022-07-29T07:45:08;1027.3;;;21;48
57799;BME280;43626;53.866;30.298;2022-07-29T07:50:08;1027.4;;;21.2;47.5
57799;BME280;43626;53.866;30.298;2022-07-29T07:55:07;1027.5;;;21.3;46.6
57799;BME280;43626;53.866;30.298;2022-07-29T08:00:07;1027.5;;;21.4;46
57799;BME280;43626;53.866;30.298;2022-07-29T08:05:07;1027.5;;;21.5;45
57799;BME280;43626;53.866;30.298;2022-07-29T08:10:07;1027.5;;;21.6;45
57799;BME280;43626;53.866;30.298;2022-07-29T08:15:07;1027.6;;;21.6;44.9
57799;BME280;43626;53.866;30.298;2022-07-29T08:20:07;1027.6;;;21.8;45.2
57799;BME280;43626;53.866;30.298;2022-07-29T08:25:07;1027.6;;;22;44.9
57799;BME280;43626;53.866;30.298;2022-07-29T08:30:07;1027.6;;;22.2;44.4
57799;BME280;43626;53.866;30.298;2022-07-29T08:35:08;1027.7;;;22.4;44.2
57799;BME280;43626;53.866;30.298;2022-07-29T08:40:07;1027.7;;;22.3;43
57799;BME280;43626;53.866;30.298;2022-07-29T08:45:07;1027.7;;;22.3;43
57799;BME280;43626;53.866;30.298;2022-07-29T08:50:08;1027.7;;;22.3;43
57799;BME280;43626;53.866;30.298;2022-07-29T08:55:08;1027.7;;;22.5;42.4
57799;BME280;43626;53.866;30.298;2022-07-29T09:00:07;1027.7;;;22.5;42.6
57799;BME280;43626;53.866;30.298;2022-07-29T09:05:07;1027.7;;;22.3;42
57799;BME280;43626;53.866;30.298;2022-07-29T09:10:07;1027.8;;;22.3;42.3
57799;BME280;43626;53.866;30.298;2022-07-29T09:15:07;1027.8;;;22.4;42
57799;BME280;43626;53.866;30.298;2022-07-29T09:20:08;1027.8;;;22.3;42.6
57799;BME280;43626;53.866;30.298;2022-07-29T09:25:07;1027.8;;;22.3;43.2
57799;BME280;43626;53.866;30.298;2022-07-29T09:30:08;1027.8;;;22.5;43.1
57799;BME280;43626;53.866;30.298;2022-07-29T09:35:16;1027.8;;;22.5;42.3
57799;BME280;43626;53.866;30.298;2022-07-29T09:40:11;1027.8;;;22.4;43.9
57799;BME280;43626;53.866;30.298;2022-07-29T09:45:07;1027.8;;;22.6;43.7
57799;BME280;43626;53.866;30.298;2022-07-29T09:50:07;1027.8;;;22.8;43
57799;BME280;43626;53.866;30.298;2022-07-29T09:55:08;1027.9;;;22.5;41.9
57799;BME280;43626;53.866;30.298;2022-07-29T10:00:09;1027.8;;;22.5;42.4
57799;BME280;43626;53.866;30.298;2022-07-29T10:05:23;1027.8;;;22.7;42.5
57799;BME280;43626;53.866;30.298;2022-07-29T10:10:07;1027.7;;;22.9;42.2
57799;BME280;43626;53.866;30.298;2022-07-29T10:15:07;1027.7;;;23;41.1
57799;BME280;43626;53.866;30.298;2022-07-29T10:20:08;1027.6;;;23.2;41
57799;BME280;43626;53.866;30.298;2022-07-29T10:25:08;1027.7;;;23.5;41.1
57799;BME280;43626;53.866;30.298;2022-07-29T10:30:07;1027.7;;;23.2;41.7
57799;BME280;43626;53.866;30.298;2022-07-29T10:35:17;1027.7;;;22.9;42.8
57799;BME280;43626;53.866;30.298;2022-07-29T10:40:11;1027.7;;;23.1;42.6
57799;BME280;43626;53.866;30.298;2022-07-29T10:45:07;1027.7;;;23.1;41.8
57799;BME280;43626;53.866;30.298;2022-07-29T10:50:07;1027.7;;;23.4;42.5
57799;BME280;43626;53.866;30.298;2022-07-29T10:55:07;1027.7;;;23.6;42
57799;BME280;43626;53.866;30.298;2022-07-29T11:05:08;1027.7;;;23.7;41.6
57799;BME280;43626;53.866;30.298;2022-07-29T11:15:10;1027.7;;;23.4;42.6
57799;BME280;43626;53.866;30.298;2022-07-29T11:20:41;1027.8;;;23.5;42.4
57799;BME280;43626;53.866;30.298;2022-07-29T11:25:15;1027.8;;;23.4;42
57799;BME280;43626;53.866;30.298;2022-07-29T11:30:07;1027.8;;;23.2;43
57799;BME280;43626;53.866;30.298;2022-07-29T11:35:11;1027.8;;;22.6;44.2
57799;BME280;43626;53.866;30.298;2022-07-29T11:40:08;1027.8;;;22.3;45.5
57799;BME280;43626;53.866;30.298;2022-07-29T11:45:09;1027.8;;;22.3;45.4
57799;BME280;43626;53.866;30.298;2022-07-29T11:50:09;1027.7;;;22.3;45.1
57799;BME280;43626;53.866;30.298;2022-07-29T11:55:08;1027.8;;;22.6;45.4
57799;BME280;43626;53.866;30.298;2022-07-29T12:00:07;1027.8;;;22.9;44.2
57799;BME280;43626;53.866;30.298;2022-07-29T12:05:07;1027.9;;;22.7;44
57799;BME280;43626;53.866;30.298;2022-07-29T12:10:08;1027.9;;;22.9;43.7
57799;BME280;43626;53.866;30.298;2022-07-29T12:15:15;1027.8;;;23.1;43.3
57799;BME280;43626;53.866;30.298;2022-07-29T12:20:07;1027.8;;;23.3;42
57799;BME280;43626;53.866;30.298;2022-07-29T12:25:08;1027.8;;;23.1;41.1
57799;BME280;43626;53.866;30.298;2022-07-29T12:30:08;1027.8;;;22.8;41.7
57799;BME280;43626;53.866;30.298;2022-07-29T12:35:08;1027.9;;;22.8;41.3
57799;BME280;43626;53.866;30.298;2022-07-29T12:40:08;1027.9;;;23.1;41.2
57799;BME280;43626;53.866;30.298;2022-07-29T12:45:07;1027.9;;;23.3;40
57799;BME280;43626;53.866;30.298;2022-07-29T12:50:11;1027.8;;;23.6;39.8
57799;BME280;43626;53.866;30.298;2022-07-29T12:55:07;1027.8;;;23.5;39.5
57799;BME280;43626;53.866;30.298;2022-07-29T13:00:08;1027.7;;;23.7;39.4
57799;BME280;43626;53.866;30.298;2022-07-29T13:05:08;1027.7;;;23.7;39.2
57799;BME280;43626;53.866;30.298;2022-07-29T13:10:09;1027.7;;;23.5;39
57799;BME280;43626;53.866;30.298;2022-07-29T13:15:15;1027.7;;;23;39.2
57799;BME280;43626;53.866;30.298;2022-07-29T13:20:09;1027.7;;;23;39
57799;BME280;43626;53.866;30.298;2022-07-29T13:25:08;1027.6;;;23.3;38.5
57799;BME280;43626;53.866;30.298;2022-07-29T13:30:08;1027.7;;;23.6;37.7
57799;BME280;43626;53.866;30.298;2022-07-29T13:35:08;1027.7;;;23.6;37.5
57799;BME280;43626;53.866;30.298;2022-07-29T13:40:07;1027.6;;;23.7;37.3
57799;BME280;43626;53.866;30.298;2022-07-29T13:45:08;1027.6;;;23.9;37
57799;BME280;43626;53.866;30.298;2022-07-29T13:50:07;1027.6;;;24.2;37.2
57799;BME280;43626;53.866;30.298;2022-07-29T13:55:07;1027.5;;;24.3;36.6
57799;BME280;43626;53.866;30.298;2022-07-29T14:00:07;1027.6;;;24.4;36.3
57799;BME280;43626;53.866;30.298;2022-07-29T14:05:08;1027.6;;;24.2;36.7
57799;BME280;43626;53.866;30.298;2022-07-29T14:10:07;1027.5;;;24.3;36.2
57799;BME280;43626;53.866;30.298;2022-07-29T14:15:07;1027.5;;;24.5;35.8
57799;BME280;43626;53.866;30.298;2022-07-29T14:20:07;1027.5;;;24.5;35.3
57799;BME280;43626;53.866;30.298;2022-07-29T14:25:08;1027.4;;;24.6;34.9
57799;BME280;43626;53.866;30.298;2022-07-29T14:30:08;1027.5;;;24.8;34.9
57799;BME280;43626;53.866;30.298;2022-07-29T14:35:08;1027.4;;;25;34.7
57799;BME280;43626;53.866;30.298;2022-07-29T14:40:08;1027.4;;;24.7;34.6
57799;BME280;43626;53.866;30.298;2022-07-29T14:45:08;1027.4;;;24.7;35.1
57799;BME280;43626;53.866;30.298;2022-07-29T14:50:07;1027.3;;;24.8;34.6
57799;BME280;43626;53.866;30.298;2022-07-29T14:55:07;1027.3;;;25;34.3
57799;BME280;43626;53.866;30.298;2022-07-29T15:00:07;1027.3;;;25.2;33.7
57799;BME280;43626;53.866;30.298;2022-07-29T15:05:07;1027.3;;;25.4;32.2
57799;BME280;43626;53.866;30.298;2022-07-29T15:10:07;1027.3;;;25.4;31.2
57799;BME280;43626;53.866;30.298;2022-07-29T15:15:07;1027.2;;;25.2;31.1
57799;BME280;43626;53.866;30.298;2022-07-29T15:20:07;1027.2;;;25.2;30.7
57799;BME280;43626;53.866;30.298;2022-07-29T15:25:07;1027.2;;;25.5;30.4
57799;BME280;43626;53.866;30.298;2022-07-29T15:30:09;1027.2;;;26;30.5
57799;BME280;43626;53.866;30.298;2022-07-29T15:35:07;1027.2;;;26.6;30.1
57799;BME280;43626;53.866;30.298;2022-07-29T15:40:07;1027.2;;;27;28.7
57799;BME280;43626;53.866;30.298;2022-07-29T15:45:07;1027.2;;;27.4;28.2
57799;BME280;43626;53.866;30.298;2022-07-29T15:50:07;1027.2;;;27.7;27.6
57799;BME280;43626;53.866;30.298;2022-07-29T15:55:08;1027.2;;;28.1;26.6
57799;BME280;43626;53.866;30.298;2022-07-29T16:00:08;1027.2;;;28.4;25.8
57799;BME280;43626;53.866;30.298;2022-07-29T16:05:07;1027.2;;;28.7;24.7
57799;BME280;43626;53.866;30.298;2022-07-29T16:10:07;1027.2;;;29;24.9
57799;BME280;43626;53.866;30.298;2022-07-29T16:15:07;1027.2;;;29.2;23.9
57799;BME280;43626;53.866;30.298;2022-07-29T16:20:07;1027.2;;;29.4;24.3
57799;BME280;43626;53.866;30.298;2022-07-29T16:25:07;1027.2;;;29.7;24.6
57799;BME280;43626;53.866;30.298;2022-07-29T16:30:07;1027.2;;;30.2;24.5
57799;BME280;43626;53.866;30.298;2022-07-29T16:35:07;1027.2;;;30.5;24.5
57799;BME280;43626;53.866;30.298;2022-07-29T16:40:07;1027.2;;;30.6;24.8
57799;BME280;43626;53.866;30.298;2022-07-29T16:45:07;1027.2;;;30.8;24.9
57799;BME280;43626;53.866;30.298;2022-07-29T16:50:07;1027.2;;;30.8;24.6
57799;BME280;43626;53.866;30.298;2022-07-29T16:55:07;1027.2;;;30.5;24.9
57799;BME280;43626;53.866;30.298;2022-07-29T17:00:08;1027.2;;;30.2;25.5
57799;BME280;43626;53.866;30.298;2022-07-29T17:05:08;1027.2;;;30;25.9
57799;BME280;43626;53.866;30.298;2022-07-29T17:10:08;1027.3;;;29.7;26.6
57799;BME280;43626;53.866;30.298;2022-07-29T17:15:08;1027.2;;;29.6;26.7
57799;BME280;43626;53.866;30.298;2022-07-29T17:20:07;1027.2;;;29.8;26.7
57799;BME280;43626;53.866;30.298;2022-07-29T17:25:08;1027.2;;;29.9;26.8
57799;BME280;43626;53.866;30.298;2022-07-29T17:30:07;1027.2;;;29.9;26.9
57799;BME280;43626;53.866;30.298;2022-07-29T17:35:07;1027.2;;;30.1;27
57799;BME280;43626;53.866;30.298;2022-07-29T17:40:07;1027.2;;;31.1;26
57799;BME280;43626;53.866;30.298;2022-07-29T17:45:07;1027.1;;;30.4;26.5
57799;BME280;43626;53.866;30.298;2022-07-29T17:50:07;1027;;;28.4;29.6
57799;BME280;43626;53.866;30.298;2022-07-29T17:55:07;1027.1;;;27;32.2
57799;BME280;43626;53.866;30.298;2022-07-29T18:00:08;1027.1;;;26;34.6
57799;BME280;43626;53.866;30.298;2022-07-29T18:05:07;1027.1;;;25.1;36.5
57799;BME280;43626;53.866;30.298;2022-07-29T18:10:07;1027.1;;;24.4;38
57799;BME280;43626;53.866;30.298;2022-07-29T18:15:07;1027.1;;;23.9;38.5
57799;BME280;43626;53.866;30.298;2022-07-29T18:20:08;1027.2;;;23.4;39.5
57799;BME280;43626;53.866;30.298;2022-07-29T18:25:08;1027.3;;;23;40.5
57799;BME280;43626;53.866;30.298;2022-07-29T18:30:07;1027.3;;;22.6;41.3
57799;BME280;43626;53.866;30.298;2022-07-29T18:35:07;1027.3;;;22.3;42.2
57799;BME280;43626;53.866;30.298;2022-07-29T18:40:08;1027.3;;;22;44.2
57799;BME280;43626;53.866;30.298;2022-07-29T18:45:07;1027.4;;;21.7;45.8
57799;BME280;43626;53.866;30.298;2022-07-29T18:50:07;1027.5;;;21.4;46.4
57799;BME280;43626;53.866;30.298;2022-07-29T18:55:07;1027.5;;;21.1;46.7
57799;BME280;43626;53.866;30.298;2022-07-29T19:00:08;1027.6;;;20.9;47.3
57799;BME280;43626;53.866;30.298;2022-07-29T19:05:08;1027.6;;;20.7;47.8
57799;BME280;43626;53.866;30.298;2022-07-29T19:10:07;1027.7;;;20.5;47.5
57799;BME280;43626;53.866;30.298;2022-07-29T19:15:07;1027.7;;;20.3;47.6
57799;BME280;43626;53.866;30.298;2022-07-29T19:20:07;1027.7;;;20.1;48
57799;BME280;43626;53.866;30.298;2022-07-29T19:25:07;1027.7;;;19.9;48.4
57799;BME280;43626;53.866;30.298;2022-07-29T19:30:07;1027.7;;;19.7;48.7
57799;BME280;43626;53.866;30.298;2022-07-29T19:35:07;1027.7;;;19.6;49.4
57799;BME280;43626;53.866;30.298;2022-07-29T19:40:07;1027.7;;;19.4;50.6
57799;BME280;43626;53.866;30.298;2022-07-29T19:45:08;1027.7;;;19.3;50.8
57799;BME280;43626;53.866;30.298;2022-07-29T19:50:08;1027.8;;;19.1;51.2
57799;BME280;43626;53.866;30.298;2022-07-29T19:55:07;1027.8;;;19;51.5
57799;BME280;43626;53.866;30.298;2022-07-29T20:00:08;1027.9;;;18.9;51.7
57799;BME280;43626;53.866;30.298;2022-07-29T20:05:08;1028;;;18.7;51.3
57799;BME280;43626;53.866;30.298;2022-07-29T20:10:08;1028;;;18.6;51.3
57799;BME280;43626;53.866;30.298;2022-07-29T20:15:08;1028;;;18.5;51.5
57799;BME280;43626;53.866;30.298;2022-07-29T20:20:08;1028;;;18.5;51.8
57799;BME280;43626;53.866;30.298;2022-07-29T20:25:07;1028;;;18.4;52
57799;BME280;43626;53.866;30.298;2022-07-29T20:30:08;1028;;;18.3;52.7
57799;BME280;43626;53.866;30.298;2022-07-29T20:35:08;1028.1;;;18.2;53.1
57799;BME280;43626;53.866;30.298;2022-07-29T20:40:07;1028.1;;;18.1;53.3
57799;BME280;43626;53.866;30.298;2022-07-29T20:45:08;1028.1;;;18;53.7
57799;BME280;43626;53.866;30.298;2022-07-29T20:50:07;1028.2;;;17.9;54.2
57799;BME280;43626;53.866;30.298;2022-07-29T20:55:07;1028.2;;;17.9;54.6
57799;BME280;43626;53.866;30.298;2022-07-29T21:00:07;1028.3;;;17.8;54.3
57799;BME280;43626;53.866;30.298;2022-07-29T21:05:07;1028.3;;;17.8;54.1
57799;BME280;43626;53.866;30.298;2022-07-29T21:10:07;1028.3;;;17.7;54.1
57799;BME280;43626;53.866;30.298;2022-07-29T21:15:07;1028.4;;;17.7;54.1
57799;BME280;43626;53.866;30.298;2022-07-29T21:20:07;1028.4;;;17.6;54.1
57799;BME280;43626;53.866;30.298;2022-07-29T21:25:07;1028.4;;;17.6;54.2
57799;BME280;43626;53.866;30.298;2022-07-29T21:30:07;1028.5;;;17.5;54.7
57799;BME280;43626;53.866;30.298;2022-07-29T21:35:07;1028.5;;;17.4;54.8
57799;BME280;43626;53.866;30.298;2022-07-29T21:40:07;1028.5;;;17.4;54.8
57799;BME280;43626;53.866;30.298;2022-07-29T21:45:07;1028.6;;;17.3;55
57799;BME280;43626;53.866;30.298;2022-07-29T21:50:07;1028.6;;;17.2;55.4
57799;BME280;43626;53.866;30.298;2022-07-29T21:55:07;1028.7;;;17.1;55.2
57799;BME280;43626;53.866;30.298;2022-07-29T22:00:10;1028.6;;;17.1;54.9
57799;BME280;43626;53.866;30.298;2022-07-29T22:05:08;1028.6;;;17;55
57799;BME280;43626;53.866;30.298;2022-07-29T22:10:07;1028.6;;;17;55.1
57799;BME280;43626;53.866;30.298;2022-07-29T22:15:08;1028.5;;;17;55.1
57799;BME280;43626;53.866;30.298;2022-07-29T22:20:08;1028.5;;;16.9;55.6
57799;BME280;43626;53.866;30.298;2022-07-29T22:25:08;1028.4;;;16.8;55.6
57799;BME280;43626;53.866;30.298;2022-07-29T22:30:08;1028.4;;;16.7;55.6
57799;BME280;43626;53.866;30.298;2022-07-29T22:35:07;1028.4;;;16.7;55.8
57799;BME280;43626;53.866;30.298;2022-07-29T22:40:07;1028.3;;;16.6;55.7
57799;BME280;43626;53.866;30.298;2022-07-29T22:45:08;1028.3;;;16.5;55.8
57799;BME280;43626;53.866;30.298;2022-07-29T22:50:07;1028.3;;;16.5;55.8
57799;BME280;43626;53.866;30.298;2022-07-29T22:55:07;1028.3;;;16.4;55.7
57799;BME280;43626;53.866;30.298;2022-07-29T23:00:08;1028.3;;;16.4;55.7
57799;BME280;43626;53.866;30.298;2022-07-29T23:05:08;1028.3;;;16.3;55.6
57799;BME280;43626;53.866;30.298;2022-07-29T23:10:07;1028.4;;;16.2;55.7
57799;BME280;43626;53.866;30.298;2022-07-29T23:15:08;1028.3;;;16.2;56
57799;BME280;43626;53.866;30.298;2022-07-29T23:20:07;1028.3;;;16.1;56.6
57799;BME280;43626;53.866;30.298;2022-07-29T23:25:07;1028.3;;;16.1;57
57799;BME280;43626;53.866;30.298;2022-07-29T23:30:07;1028.2;;;16.1;57.1
57799;BME280;43626;53.866;30.298;2022-07-29T23:35:07;1028.2;;;16.1;57.1
57799;BME280;43626;53.866;30.298;2022-07-29T23:40:08;1028.2;;;16.1;57.5
57799;BME280;43626;53.866;30.298;2022-07-29T23:45:08;1028.2;;;16.1;57.3
57799;BME280;43626;53.866;30.298;2022-07-29T23:50:08;1028.3;;;16.1;57.1
57799;BME280;43626;53.866;30.298;2022-07-29T23:55:08;1028.3;;;16.1;56.8
